CheckWX is a tool to help pilots better visualize weather data.  It is not intended as a substitute for an official pre-flight weather briefing.

16:04:36 UTC

KLOZ METAR
London-Corbin Arpt-Magee Field Airport
London, Kentucky, USA
Current

12 mins ago

KLOZ 171553Z AUTO VRB03KT 10SM CLR 29/18 A3008 RMK AO2 SLP172 T02890178
Observed
Aug-17 @ 15:53 UTC
Wind
  • Variable at 3 KTS
Visibility
10 SM
Flight Rules
VFR
Cloud Levels
  • Clear skies
Temperature
29°C / 84°F
Dewpoint
18°C / 64°F
Heat Index
29°C / 85°F
Humidity
51%
Altimeter
30.08" Hg
Pressure
1018.62 hPa
Previous

1 hour ago

KLOZ 171453Z AUTO 00000KT 10SM CLR 27/17 A3007 RMK AO2 SLP171 T02720172 51007
Observed
Aug-17 @ 14:53 UTC
Visibility
10 SM
Flight Rules
VFR
Cloud Levels
  • Clear skies
Temperature
27°C / 81°F
Dewpoint
17°C / 63°F
Heat Index
28°C / 82°F
Humidity
54%
Altimeter
30.07" Hg
Pressure
1018.32 hPa
Previous

2 hours ago

KLOZ 171353Z AUTO 00000KT 10SM CLR 24/19 A3007 RMK AO2 SLP169 T02440189
Observed
Aug-17 @ 13:53 UTC
Visibility
10 SM
Flight Rules
VFR
Cloud Levels
  • Clear skies
Temperature
24°C / 75°F
Dewpoint
19°C / 66°F
Humidity
74%
Altimeter
30.07" Hg
Pressure
1018.32 hPa